Time;durP1;ratioP1;P1;durP2;ratioP2;P2;SDS_P1;SDS_P2;PMS_P1;PMS_P2;Temp;Humidity;BMP_temperature;BMP_pressure;BME280_temperature;BME280_humidity;BME280_pressure;Samples;Min_cycle;Max_cycle;Signal;HPM_P1;HPM_P2
2023/12/30 00:01:51;;;;;;;20.90;7.20;;;;;;;5.14;100.00;99806.81;7365117;19;20431;-42
2023/12/30 00:04:22;;;;;;;48.57;16.33;;;;;;;5.18;100.00;99799.28;7386163;19;20486;-43
2023/12/30 00:06:54;;;;;;;46.40;13.33;;;;;;;5.20;100.00;99790.00;7365181;19;20422;-42
2023/12/30 00:09:24;;;;;;;4.07;1.70;;;;;;;5.17;100.00;99800.97;7385920;19;20440;-41
2023/12/30 00:11:55;;;;;;;23.77;7.87;;;;;;;5.18;100.00;99802.72;7364681;19;20502;-42
2023/12/30 00:14:25;;;;;;;60.07;20.63;;;;;;;5.23;100.00;99798.69;7388372;19;20419;-42
2023/12/30 00:16:54;;;;;;;27.97;10.17;;;;;;;5.22;100.00;99791.84;7364830;19;20419;-42
2023/12/30 00:19:24;;;;;;;1.90;1.30;;;;;;;5.18;100.00;99792.47;7385478;19;20887;-41
2023/12/30 00:21:57;;;;;;;1.40;0.50;;;;;;;5.17;100.00;99800.97;7363772;19;20464;-42
2023/12/30 00:24:27;;;;;;;3.50;1.00;;;;;;;5.14;100.00;99805.94;7386800;19;20399;-42
2023/12/30 00:26:56;;;;;;;4.90;1.00;;;;;;;5.16;100.00;99789.00;7364934;19;20426;-42
2023/12/30 00:29:26;;;;;;;5.73;0.80;;;;;;;5.16;100.00;99788.09;7384334;19;20408;-42
2023/12/30 00:31:56;;;;;;;5.83;1.20;;;;;;;5.13;100.00;99778.63;7363462;19;20498;-41
2023/12/30 00:34:26;;;;;;;6.00;2.10;;;;;;;5.14;100.00;99772.69;7387107;19;20411;-39
2023/12/30 00:36:58;;;;;;;1.90;0.80;;;;;;;5.10;100.00;99778.47;7366380;19;20862;-39
2023/12/30 00:39:28;;;;;;;3.10;1.03;;;;;;;5.12;100.00;99766.63;7390001;19;20436;-39
2023/12/30 00:41:58;;;;;;;1.97;0.70;;;;;;;5.11;100.00;99773.44;7364920;19;20479;-42
2023/12/30 00:44:27;;;;;;;2.73;0.70;;;;;;;5.12;100.00;99771.72;7386237;19;20407;-39
2023/12/30 00:46:57;;;;;;;4.53;0.90;;;;;;;5.11;100.00;99769.97;7363713;19;20450;-39
2023/12/30 00:49:26;;;;;;;4.53;1.00;;;;;;;5.10;100.00;99783.56;7385488;19;20408;-38
2023/12/30 00:51:58;;;;;;;3.77;0.97;;;;;;;5.09;100.00;99776.72;7365622;19;20466;-39
2023/12/30 00:54:28;;;;;;;2.10;0.83;;;;;;;5.05;100.00;99779.91;7385950;19;20416;-40
2023/12/30 00:57:12;;;;;;;2.70;1.70;;;;;;;4.92;100.00;99786.13;7365612;19;20427;-38
2023/12/30 00:59:42;;;;;;;1.60;0.60;;;;;;;4.79;100.00;99777.84;7387249;19;20438;-41
2023/12/30 01:02:12;;;;;;;1.90;0.70;;;;;;;4.69;100.00;99784.19;7363576;19;20433;-41
2023/12/30 01:04:41;;;;;;;3.83;0.83;;;;;;;4.67;100.00;99790.03;7388598;19;20400;-39
2023/12/30 01:07:13;;;;;;;3.70;0.90;;;;;;;4.66;100.00;99807.00;7364744;19;20555;-41
2023/12/30 01:09:43;;;;;;;3.10;0.70;;;;;;;4.54;100.00;99819.16;7386178;19;20400;-39
2023/12/30 01:12:13;;;;;;;1.90;1.03;;;;;;;4.41;100.00;99850.88;7366388;19;20881;-40
2023/12/30 01:14:42;;;;;;;3.10;1.30;;;;;;;4.29;100.00;99868.97;7391614;19;20487;-40
2023/12/30 01:17:13;;;;;;;4.27;1.37;;;;;;;4.18;100.00;99999.53;7370422;19;20415;-39
2023/12/30 01:19:43;;;;;;;13.47;3.03;;;;;;;4.09;100.00;100126.66;7392518;19;20780;-42
2023/12/30 01:22:15;;;;;;;1.73;0.83;;;;;;;4.06;100.00;100215.88;7367951;19;20448;-39
2023/12/30 01:24:45;;;;;;;1.40;0.53;;;;;;;4.03;100.00;100284.59;7392119;19;20395;-40
2023/12/30 01:27:15;;;;;;;5.13;1.50;;;;;;;4.06;100.00;100297.56;7366600;19;20418;-40
2023/12/30 01:29:44;;;;;;;1.30;0.50;;;;;;;4.04;100.00;100322.09;7389772;19;20424;-43
2023/12/30 01:32:14;;;;;;;3.33;1.07;;;;;;;4.02;100.00;100336.47;7366083;19;20429;-40
2023/12/30 01:34:44;;;;;;;2.50;1.33;;;;;;;4.01;100.00;100365.34;7389063;19;20400;-41
2023/12/30 01:37:16;;;;;;;2.43;0.73;;;;;;;4.03;100.00;100371.41;7366671;19;20490;-45
2023/12/30 01:39:46;;;;;;;18.27;3.90;;;;;;;4.03;100.00;100379.97;7390450;19;20399;-41
2023/12/30 01:42:16;;;;;;;3.73;0.90;;;;;;;4.00;100.00;100378.91;7365867;19;20430;-41
2023/12/30 01:44:46;;;;;;;9.83;4.80;;;;;;;4.00;100.00;100384.00;7390695;19;20422;-41
2023/12/30 01:47:15;;;;;;;4.50;0.90;;;;;;;4.00;100.00;100384.88;7362359;19;20461;-38
2023/12/30 01:49:46;;;;;;;7.00;2.50;;;;;;;4.01;100.00;100390.88;7388259;19;20408;-42
2023/12/30 01:52:18;;;;;;;1.43;0.63;;;;;;;3.97;100.00;100399.13;7367907;19;20464;-41
2023/12/30 01:54:48;;;;;;;3.33;0.70;;;;;;;3.96;100.00;100387.13;7389558;19;20458;-40
2023/12/30 01:57:18;;;;;;;5.40;1.30;;;;;;;3.95;100.00;100400.69;7366702;19;20423;-41
2023/12/30 01:59:47;;;;;;;1.40;0.47;;;;;;;3.90;100.00;100392.75;7388663;19;20431;-39
2023/12/30 02:02:17;;;;;;;5.10;1.00;;;;;;;3.89;100.00;100398.63;7371080;19;20453;-38
2023/12/30 02:04:48;;;;;;;2.07;0.80;;;;;;;3.90;100.00;100382.53;7396741;19;20407;-44
2023/12/30 02:07:20;;;;;;;1.30;0.70;;;;;;;3.93;100.00;100380.16;7374687;19;20790;-39
2023/12/30 02:09:49;;;;;;;2.10;0.93;;;;;;;3.96;100.00;100376.94;7394501;19;20411;-42
2023/12/30 02:12:19;;;;;;;8.63;1.37;;;;;;;3.94;100.00;100368.31;7373411;19;20467;-40
2023/12/30 02:14:49;;;;;;;2.57;0.70;;;;;;;4.00;100.00;100355.91;7396948;19;20482;-40
2023/12/30 02:17:18;;;;;;;16.73;1.00;;;;;;;4.04;100.00;100339.97;7372817;19;20486;-39
2023/12/30 02:19:49;;;;;;;2.47;0.90;;;;;;;4.08;100.00;100330.84;7394434;19;20419;-40
2023/12/30 02:22:23;;;;;;;1.60;0.80;;;;;;;4.10;100.00;100309.72;7372860;19;20457;-39
2023/12/30 02:24:59;;;;;;;4.40;1.17;;;;;;;4.14;100.00;100287.81;7394002;19;20395;-40
2023/12/30 02:27:29;;;;;;;14.40;0.80;;;;;;;4.13;100.00;100278.38;7372029;19;20419;-40
2023/12/30 02:29:59;;;;;;;1.97;0.90;;;;;;;4.16;100.00;100243.69;7393063;19;20399;-39
2023/12/30 02:32:28;;;;;;;1.93;0.70;;;;;;;4.18;100.00;100218.25;7371088;19;20990;-39
2023/12/30 02:34:58;;;;;;;2.83;0.80;;;;;;;4.16;100.00;100172.19;7395626;19;20434;-39
2023/12/30 02:37:27;;;;;;;1.60;0.83;;;;;;;4.11;100.00;100122.53;7370294;19;21131;-42
2023/12/30 02:40:00;;;;;;;1.83;0.60;;;;;;;4.11;100.00;100103.78;7391647;19;21102;-39
2023/12/30 02:42:29;;;;;;;2.70;0.70;;;;;;;4.12;100.00;100098.78;7362539;19;20423;-40
2023/12/30 02:44:59;;;;;;;16.83;1.40;;;;;;;4.14;100.00;100050.31;7391071;19;20408;-40
2023/12/30 02:47:28;;;;;;;4.10;0.70;;;;;;;4.06;100.00;100032.03;7366297;19;20423;-38
2023/12/30 02:49:58;;;;;;;2.60;1.10;;;;;;;4.04;100.00;100014.09;7389873;19;20423;-39
2023/12/30 02:52:30;;;;;;;2.47;0.60;;;;;;;4.09;100.00;99983.69;7368558;19;22318;-39
2023/12/30 02:55:04;;;;;;;6.50;1.70;;;;;;;4.03;100.00;99975.69;7391124;19;20474;-39
2023/12/30 02:57:34;;;;;;;1.70;0.50;;;;;;;4.03;100.00;99968.03;7367447;19;20973;-41
2023/12/30 03:00:19;;;;;;;5.13;1.13;;;;;;;4.05;100.00;99954.56;7390862;19;20697;-39
2023/12/30 03:02:49;;;;;;;3.90;0.80;;;;;;;4.01;100.00;99946.66;7366648;19;21436;-41
2023/12/30 03:05:19;;;;;;;2.50;1.03;;;;;;;3.94;100.00;99952.22;7393139;19;20410;-38
2023/12/30 03:07:49;;;;;;;6.13;0.83;;;;;;;3.95;100.00;99951.41;7366893;19;20518;-41
2023/12/30 03:10:21;;;;;;;7.00;1.47;;;;;;;3.96;100.00;99953.19;7389869;19;20416;-39
2023/12/30 03:12:51;;;;;;;4.83;0.73;;;;;;;3.92;100.00;99967.44;7365116;19;20424;-39
2023/12/30 03:15:20;;;;;;;2.03;0.50;;;;;;;3.95;100.00;99959.06;7389707;19;20403;-40
2023/12/30 03:17:50;;;;;;;5.30;0.90;;;;;;;3.88;100.00;99971.50;7366370;19;20427;-41
2023/12/30 03:20:20;;;;;;;3.10;0.50;;;;;;;3.89;100.00;99968.16;7389072;19;21003;-40
2023/12/30 03:22:49;;;;;;;3.90;0.80;;;;;;;3.91;100.00;99969.09;7366153;19;20432;-37
2023/12/30 03:25:21;;;;;;;3.67;0.80;;;;;;;3.87;100.00;99972.28;7389407;19;20471;-38
2023/12/30 03:27:51;;;;;;;12.27;0.73;;;;;;;3.87;100.00;99990.16;7366066;19;21092;-38
2023/12/30 03:30:21;;;;;;;3.97;2.00;;;;;;;3.89;100.00;99996.22;7388923;19;20511;-39
2023/12/30 03:32:50;;;;;;;2.33;0.53;;;;;;;3.92;100.00;99983.66;7366522;19;20447;-39
2023/12/30 03:35:20;;;;;;;7.37;0.90;;;;;;;3.94;100.00;99985.41;7388596;19;20943;-38
2023/12/30 03:37:50;;;;;;;3.40;1.10;;;;;;;3.92;100.00;99993.88;7365461;19;20411;-39
2023/12/30 03:40:22;;;;;;;3.73;0.80;;;;;;;3.92;100.00;99993.88;7388244;19;20951;-39
2023/12/30 03:42:52;;;;;;;4.60;1.47;;;;;;;3.94;100.00;99995.63;7365777;19;20520;-39
2023/12/30 03:45:21;;;;;;;3.00;1.00;;;;;;;3.92;100.00;100003.19;7388308;19;20412;-39
2023/12/30 03:47:52;;;;;;;1.93;0.60;;;;;;;3.92;100.00;100009.19;7364305;19;21032;-39
2023/12/30 03:50:21;;;;;;;4.73;0.90;;;;;;;3.92;100.00;100003.19;7388143;19;20412;-40
2023/12/30 03:52:51;;;;;;;3.53;0.67;;;;;;;3.94;100.00;99991.38;7370309;19;20460;-41
2023/12/30 03:55:24;;;;;;;5.60;0.93;;;;;;;3.97;100.00;99989.00;7396726;19;20758;-39
2023/12/30 03:57:53;;;;;;;2.23;0.53;;;;;;;3.97;100.00;99990.66;7372681;19;20430;-39
2023/12/30 04:00:23;;;;;;;5.73;1.20;;;;;;;3.99;100.00;99989.09;7396008;19;20422;-40
2023/12/30 04:02:53;;;;;;;5.23;0.90;;;;;;;4.00;100.00;99995.97;7373177;19;20878;-41
2023/12/30 04:05:22;;;;;;;7.37;1.30;;;;;;;4.05;100.00;99991.97;7395817;19;20414;-39
2023/12/30 04:07:52;;;;;;;4.60;1.03;;;;;;;4.09;100.00;100004.13;7372249;19;20419;-39
2023/12/30 04:10:24;;;;;;;5.93;0.93;;;;;;;4.13;100.00;100003.50;7395427;19;20407;-41
2023/12/30 04:12:54;;;;;;;6.10;0.90;;;;;;;4.14;100.00;100007.81;7373391;19;20419;-40
2023/12/30 04:15:24;;;;;;;8.53;3.07;;;;;;;4.15;100.00;100032.53;7395842;19;20820;-39
2023/12/30 04:17:54;;;;;;;4.50;1.07;;;;;;;4.04;100.00;100072.81;7372931;19;20431;-39
2023/12/30 04:20:24;;;;;;;2.67;0.40;;;;;;;3.85;100.00;100133.78;7396089;19;20436;-39
2023/12/30 04:22:54;;;;;;;2.87;0.60;;;;;;;3.62;100.00;100185.22;7374742;19;20431;-41
2023/12/30 04:25:26;;;;;;;4.07;1.40;;;;;;;3.48;100.00;100255.78;7399198;19;20395;-39
2023/12/30 04:27:56;;;;;;;4.60;1.07;;;;;;;3.43;100.00;100340.47;7375851;19;20979;-39
2023/12/30 04:30:26;;;;;;;3.53;0.67;;;;;;;3.41;100.00;100370.09;7398743;19;20432;-39
2023/12/30 04:32:55;;;;;;;7.63;0.80;;;;;;;3.40;100.00;100424.44;7374281;19;20423;-39
2023/12/30 04:35:25;;;;;;;8.10;0.93;;;;;;;3.39;100.00;100456.72;7397538;19;20421;-39
2023/12/30 04:37:55;;;;;;;12.80;3.70;;;;;;;3.37;100.00;100482.13;7371602;19;20998;-39
2023/12/30 04:40:27;;;;;;;4.77;1.13;;;;;;;3.36;100.00;100504.97;7396202;19;20487;-39
2023/12/30 04:42:57;;;;;;;8.60;1.00;;;;;;;3.37;100.00;100533.13;7373127;19;20435;-39
2023/12/30 04:45:27;;;;;;;12.63;3.83;;;;;;;3.36;100.00;100556.88;7395481;19;20412;-39
2023/12/30 04:47:56;;;;;;;12.07;3.60;;;;;;;3.41;100.00;100567.38;7368743;19;20450;-39
2023/12/30 04:50:26;;;;;;;9.90;1.20;;;;;;;3.40;100.00;100572.38;7394385;19;20776;-42
2023/12/30 04:52:55;;;;;;;5.90;2.00;;;;;;;3.41;100.00;100595.44;7372603;19;21011;-41
2023/12/30 04:55:28;;;;;;;8.40;1.37;;;;;;;3.42;100.00;100602.31;7395329;19;20409;-41
2023/12/30 04:57:58;;;;;;;11.90;2.63;;;;;;;3.47;100.00;100600.97;7372548;19;20443;-39
2023/12/30 05:00:27;;;;;;;14.73;4.93;;;;;;;3.48;100.00;100599.28;7395074;19;20411;-42
2023/12/30 05:02:57;;;;;;;5.80;1.10;;;;;;;3.43;100.00;100593.88;7374075;19;21001;-40
2023/12/30 05:05:27;;;;;;;3.40;0.60;;;;;;;3.46;100.00;100593.19;7392838;19;20422;-39
2023/12/30 05:07:56;;;;;;;5.60;1.10;;;;;;;3.50;100.00;100588.41;7372758;19;20443;-38
2023/12/30 05:10:29;;;;;;;7.03;1.80;;;;;;;3.48;100.00;100591.63;7396184;19;20840;-38
2023/12/30 05:12:58;;;;;;;4.67;1.70;;;;;;;3.50;100.00;100583.28;7374188;19;20514;-42
2023/12/30 05:15:29;;;;;;;6.50;1.00;;;;;;;3.46;100.00;100600.84;7396699;19;20403;-41
2023/12/30 05:17:58;;;;;;;7.00;1.13;;;;;;;3.46;100.00;100580.44;7373660;19;20908;-38
2023/12/30 05:20:29;;;;;;;6.20;1.90;;;;;;;3.48;100.00;100576.31;7396845;19;20439;-38
2023/12/30 05:23:01;;;;;;;5.23;0.90;;;;;;;3.50;100.00;100556.91;7373516;19;20499;-38
2023/12/30 05:25:34;;;;;;;8.43;1.37;;;;;;;3.54;100.00;100546.13;7387634;19;20448;-38
2023/12/30 05:28:03;;;;;;;7.33;1.53;;;;;;;3.56;100.00;100549.69;7394234;19;20418;-38
2023/12/30 05:30:33;;;;;;;4.23;1.13;;;;;;;3.63;100.00;100546.75;7372422;19;20427;-38
2023/12/30 05:33:03;;;;;;;2.93;0.80;;;;;;;3.65;100.00;100560.47;7391927;19;20745;-37
2023/12/30 05:35:35;;;;;;;9.83;1.47;;;;;;;3.69;100.00;100570.91;7372238;19;20391;-38
2023/12/30 05:38:05;;;;;;;5.93;1.80;;;;;;;3.68;100.00;100594.66;7396962;19;20407;-37
2023/12/30 05:40:37;;;;;;;1.43;0.40;;;;;;;3.72;100.00;100611.94;7377934;19;20462;-38
2023/12/30 05:43:07;;;;;;;18.70;1.80;;;;;;;3.70;100.00;100621.16;7397597;19;20404;-38
2023/12/30 05:45:37;;;;;;;8.67;1.80;;;;;;;3.69;100.00;100637.25;7375891;19;20386;-38
2023/12/30 05:48:07;;;;;;;6.73;1.03;;;;;;;3.68;100.00;100645.69;7396606;19;20403;-40
2023/12/30 05:50:37;;;;;;;6.17;1.63;;;;;;;3.69;100.00;100660.22;7378207;19;20411;-39
2023/12/30 05:53:07;;;;;;;3.93;0.73;;;;;;;3.64;100.00;100654.81;7401990;19;20411;-38
2023/12/30 05:55:39;;;;;;;4.80;0.60;;;;;;;3.70;100.00;100654.34;7379825;19;20408;-39
2023/12/30 05:58:08;;;;;;;8.47;1.50;;;;;;;3.69;100.00;100658.53;7398980;19;20499;-41
2023/12/30 06:00:38;;;;;;;19.23;6.77;;;;;;;3.68;100.00;100671.22;7379932;19;20420;-39
2023/12/30 06:03:08;;;;;;;10.93;1.27;;;;;;;3.65;100.00;100672.75;7400569;19;20432;-39
2023/12/30 06:05:38;;;;;;;13.70;2.37;;;;;;;3.65;100.00;100671.88;7379597;19;20435;-39
2023/12/30 06:08:08;;;;;;;8.23;1.73;;;;;;;3.64;100.00;100671.00;7399170;19;20428;-40
2023/12/30 06:10:40;;;;;;;9.90;1.37;;;;;;;3.63;100.00;100668.31;7380035;19;20403;-38
2023/12/30 06:13:10;;;;;;;6.13;0.90;;;;;;;3.64;100.00;100645.47;7400329;19;20400;-40
2023/12/30 06:15:40;;;;;;;4.97;1.23;;;;;;;3.63;100.00;100645.34;7380260;19;20428;-39
2023/12/30 06:18:09;;;;;;;5.20;1.37;;;;;;;3.64;100.00;100640.38;7393912;19;20432;-39
2023/12/30 06:20:39;;;;;;;5.77;1.17;;;;;;;3.64;100.00;100629.28;7372564;19;21022;-38
2023/12/30 06:23:09;;;;;;;17.93;2.73;;;;;;;3.66;100.00;100622.63;7390881;19;20478;-38
2023/12/30 06:25:42;;;;;;;6.23;1.43;;;;;;;3.67;100.00;100610.72;7370738;19;20422;-38
2023/12/30 06:28:11;;;;;;;3.20;1.33;;;;;;;3.70;100.00;100608.41;7391561;19;20471;-39
2023/12/30 06:30:41;;;;;;;3.20;1.23;;;;;;;3.67;100.00;100608.19;7371934;19;20675;-38
2023/12/30 06:33:11;;;;;;;4.80;0.83;;;;;;;3.73;100.00;100599.28;7391277;19;20422;-38
2023/12/30 06:35:40;;;;;;;8.17;1.50;;;;;;;3.77;100.00;100600.38;7369795;19;20410;-38
2023/12/30 06:38:10;;;;;;;17.03;2.83;;;;;;;3.78;100.00;100602.13;7388411;19;20400;-38
2023/12/30 06:40:45;;;;;;;5.10;0.80;;;;;;;3.78;100.00;100608.13;7368980;19;20403;-38
2023/12/30 06:43:16;;;;;;;4.77;1.20;;;;;;;3.80;100.00;100631.22;7388498;19;20436;-38
2023/12/30 06:45:46;;;;;;;11.80;1.57;;;;;;;3.82;100.00;100650.06;7367321;19;20407;-38
2023/12/30 06:48:17;;;;;;;21.00;1.57;;;;;;;3.83;100.00;100666.25;7386751;19;20407;-38
2023/12/30 06:50:47;;;;;;;3.37;0.90;;;;;;;3.83;100.00;100662.03;7368042;19;20427;-38
2023/12/30 06:53:17;;;;;;;8.33;1.33;;;;;;;3.83;100.00;100690.09;7389512;19;20459;-38
2023/12/30 06:55:49;;;;;;;9.10;1.93;;;;;;;3.84;100.00;100689.31;7369289;19;20498;-38
2023/12/30 06:58:19;;;;;;;4.60;1.30;;;;;;;3.86;100.00;100708.19;7389276;19;20436;-38
2023/12/30 07:00:48;;;;;;;4.33;1.30;;;;;;;3.86;100.00;100733.72;7368515;19;20426;-38
2023/12/30 07:03:18;;;;;;;7.33;1.60;;;;;;;3.87;100.00;100735.50;7388804;19;20515;-38
2023/12/30 07:05:48;;;;;;;8.27;1.50;;;;;;;3.88;100.00;100750.03;7368022;19;20395;-38
2023/12/30 07:08:17;;;;;;;1.90;0.90;;;;;;;3.84;100.00;100760.81;7386561;19;21213;-38
2023/12/30 07:10:49;;;;;;;14.90;3.30;;;;;;;3.84;100.00;100773.56;7366385;19;20411;-38
2023/12/30 07:13:19;;;;;;;4.77;1.23;;;;;;;3.81;100.00;100783.56;7387948;19;20410;-38
2023/12/30 07:15:50;;;;;;;19.63;6.30;;;;;;;3.79;100.00;100790.22;7367088;19;20419;-37
2023/12/30 07:18:19;;;;;;;7.67;2.23;;;;;;;3.78;100.00;100801.22;7387191;19;20404;-38
2023/12/30 07:20:49;;;;;;;11.17;1.77;;;;;;;3.75;100.00;100795.91;7367309;19;20720;-37
2023/12/30 07:23:19;;;;;;;1.40;0.87;;;;;;;3.68;100.00;100801.38;7387366;19;20407;-38
2023/12/30 07:25:51;;;;;;;9.83;1.47;;;;;;;3.66;100.00;100808.91;7368800;19;20403;-38
2023/12/30 07:28:21;;;;;;;4.33;1.03;;;;;;;3.65;100.00;100796.94;7389198;19;20407;-38
2023/12/30 07:30:52;;;;;;;4.03;1.53;;;;;;;3.59;100.00;100805.03;7369853;19;20417;-38
2023/12/30 07:33:23;;;;;;;6.07;1.30;;;;;;;3.54;100.00;100808.91;7389735;19;20427;-39
2023/12/30 07:35:52;;;;;;;2.27;0.97;;;;;;;3.54;100.00;100801.25;7368235;19;20395;-39
2023/12/30 07:38:23;;;;;;;6.83;1.67;;;;;;;3.53;100.00;100779.06;7388181;19;20474;-39
2023/12/30 07:40:55;;;;;;;3.67;1.30;;;;;;;3.46;100.00;100789.63;7367746;19;20414;-45
2023/12/30 07:43:25;;;;;;;6.20;1.60;;;;;;;3.46;100.00;100776.88;7389348;19;20421;-38
2023/12/30 07:45:54;;;;;;;6.77;1.33;;;;;;;3.43;100.00;100753.72;7373066;19;21202;-40
2023/12/30 07:48:24;;;;;;;2.67;1.10;;;;;;;3.44;100.00;100756.34;7395945;19;20417;-41
2023/12/30 07:50:54;;;;;;;5.20;1.30;;;;;;;3.49;100.00;100746.50;7374168;19;20804;-38
2023/12/30 07:53:23;;;;;;;8.00;1.97;;;;;;;3.51;100.00;100729.63;7396270;19;20811;-40
2023/12/30 07:55:56;;;;;;;9.13;1.93;;;;;;;3.57;100.00;100729.13;7375378;19;20781;-38
2023/12/30 07:58:25;;;;;;;1.63;1.03;;;;;;;3.62;100.00;100723.59;7398509;19;20411;-41
2023/12/30 08:00:55;;;;;;;13.20;2.30;;;;;;;3.64;100.00;100719.47;7373696;19;20769;-41
2023/12/30 08:03:25;;;;;;;9.80;1.50;;;;;;;3.70;100.00;100726.66;7395842;19;20490;-38
2023/12/30 08:05:54;;;;;;;3.13;0.83;;;;;;;3.71;100.00;100725.00;7373429;19;20402;-38
2023/12/30 08:08:24;;;;;;;2.43;0.83;;;;;;;3.71;100.00;100720.78;7395359;19;20444;-38
2023/12/30 08:10:56;;;;;;;3.40;1.30;;;;;;;3.76;100.00;100721.97;7372860;19;20486;-38
2023/12/30 08:13:26;;;;;;;3.90;1.23;;;;;;;3.76;100.00;100741.53;7392114;19;20424;-39
2023/12/30 08:15:57;;;;;;;8.20;1.60;;;;;;;3.78;100.00;100745.97;7363349;19;20423;-38
2023/12/30 08:18:26;;;;;;;15.20;2.70;;;;;;;3.82;100.00;100764.03;7386112;19;20763;-38
2023/12/30 08:20:56;;;;;;;6.83;1.30;;;;;;;3.89;100.00;100794.28;7366549;19;20447;-38
2023/12/30 08:23:26;;;;;;;20.03;2.33;;;;;;;3.89;100.00;100824.94;7388462;19;20419;-37
2023/12/30 08:25:58;;;;;;;13.43;2.07;;;;;;;3.87;100.00;100857.13;7368498;19;20413;-38
2023/12/30 08:28:27;;;;;;;2.80;1.50;;;;;;;3.78;100.00;100873.59;7385182;19;20404;-37
2023/12/30 08:30:59;;;;;;;2.90;1.00;;;;;;;3.37;100.00;100887.69;7366180;19;20431;-38
2023/12/30 08:33:29;;;;;;;2.90;0.80;;;;;;;2.90;100.00;100898.69;7384607;19;20395;-37
2023/12/30 08:35:58;;;;;;;8.50;2.77;;;;;;;2.80;100.00;100903.84;7365120;19;20420;-38
2023/12/30 08:38:31;;;;;;;1.30;0.60;;;;;;;2.74;100.00;100899.19;7384297;19;20386;-38
2023/12/30 08:41:04;;;;;;;3.47;1.70;;;;;;;2.67;100.00;100913.13;7365249;19;20453;-39
2023/12/30 08:43:33;;;;;;;4.50;0.93;;;;;;;2.69;100.00;100914.16;7386425;19;20415;-39
2023/12/30 08:46:03;;;;;;;1.93;0.40;;;;;;;2.66;100.00;100920.69;7365756;19;20402;-38
2023/12/30 08:48:32;;;;;;;3.43;1.60;;;;;;;2.68;100.00;100929.31;7385601;19;20412;-38
2023/12/30 08:51:02;;;;;;;1.97;0.60;;;;;;;2.70;100.00;100905.72;7365581;19;20413;-41
2023/12/30 08:53:32;;;;;;;5.60;2.00;;;;;;;2.74;100.00;100895.75;7385543;19;20407;-38
2023/12/30 08:56:04;;;;;;;3.10;0.63;;;;;;;2.76;100.00;100887.44;7368230;19;20446;-39
2023/12/30 08:58:34;;;;;;;3.47;0.70;;;;;;;2.76;100.00;100874.72;7384544;19;20407;-37
2023/12/30 09:01:03;;;;;;;3.17;1.27;;;;;;;2.82;100.00;100852.22;7364123;19;20415;-41
2023/12/30 09:03:33;;;;;;;4.77;2.00;;;;;;;2.84;100.00;100837.06;7388963;19;20389;-41
2023/12/30 09:06:03;;;;;;;1.30;0.40;;;;;;;2.83;100.00;100830.19;7365256;19;20518;-38
2023/12/30 09:08:33;;;;;;;2.20;0.70;;;;;;;2.83;100.00;100823.41;7385648;19;20415;-40
2023/12/30 09:11:05;;;;;;;4.07;0.90;;;;;;;2.92;100.00;100822.34;7363954;19;20443;-38
2023/12/30 09:13:35;;;;;;;3.87;0.80;;;;;;;2.93;100.00;100852.16;7386447;19;20400;-37
2023/12/30 09:16:04;;;;;;;4.53;0.97;;;;;;;2.92;100.00;100873.31;7365257;19;20423;-37
2023/12/30 09:18:35;;;;;;;5.37;0.60;;;;;;;2.76;100.00;100850.91;7384948;19;20992;-40
2023/12/30 09:21:04;;;;;;;10.60;2.90;;;;;;;2.65;100.00;100855.16;7364026;19;20818;-37
2023/12/30 09:23:34;;;;;;;4.93;1.00;;;;;;;2.72;100.00;100844.66;7384107;19;21018;-40
2023/12/30 09:26:07;;;;;;;6.23;1.80;;;;;;;2.63;100.00;100854.19;7364810;19;20818;-39
2023/12/30 09:28:37;;;;;;;3.27;0.93;;;;;;;2.61;100.00;100850.63;7385699;19;20757;-38
2023/12/30 09:31:07;;;;;;;2.40;0.73;;;;;;;2.64;100.00;100846.66;7364747;19;20427;-38
2023/12/30 09:33:37;;;;;;;2.30;1.10;;;;;;;2.65;100.00;100835.69;7386136;19;20773;-40
2023/12/30 09:36:08;;;;;;;1.20;0.40;;;;;;;2.65;100.00;100838.25;7364574;19;20415;-39
2023/12/30 09:38:38;;;;;;;4.83;1.20;;;;;;;2.65;100.00;100847.53;7384826;19;20486;-41
2023/12/30 09:41:10;;;;;;;3.33;0.80;;;;;;;2.70;100.00;100847.13;7364484;19;20523;-39
2023/12/30 09:43:40;;;;;;;7.37;2.00;;;;;;;2.71;100.00;100850.53;7385549;19;20967;-40
2023/12/30 09:46:10;;;;;;;3.60;1.23;;;;;;;2.68;100.00;100852.88;7362831;19;20793;-41
2023/12/30 09:48:42;;;;;;;13.67;3.30;;;;;;;2.73;100.00;100843.91;7384854;19;20397;-39
2023/12/30 09:51:12;;;;;;;5.57;0.80;;;;;;;2.72;100.00;100837.03;7363789;19;20490;-41
2023/12/30 09:53:41;;;;;;;5.90;2.20;;;;;;;2.78;100.00;100834.94;7385256;19;20415;-40
2023/12/30 09:56:14;;;;;;;3.97;1.33;;;;;;;2.82;100.00;100826.75;7363862;19;20491;-39
2023/12/30 09:58:44;;;;;;;2.17;1.00;;;;;;;2.84;100.00;100821.78;7383106;19;20411;-38
2023/12/30 10:01:14;;;;;;;3.93;0.97;;;;;;;2.89;100.00;100819.56;7364906;19;20442;-39
2023/12/30 10:03:44;;;;;;;4.43;1.17;;;;;;;2.90;100.00;100813.69;7384437;19;20385;-39
2023/12/30 10:06:14;;;;;;;5.00;1.30;;;;;;;2.95;100.00;100812.38;7363851;19;20440;-41
2023/12/30 10:08:44;;;;;;;9.40;1.53;;;;;;;2.99;100.00;100799.06;7382373;19;20733;-38
2023/12/30 10:11:16;;;;;;;4.83;1.30;;;;;;;3.00;100.00;100811.03;7363392;19;20431;-40
2023/12/30 10:13:46;;;;;;;5.93;1.27;;;;;;;3.05;100.00;100813.91;7383942;19;20943;-39
2023/12/30 10:16:17;;;;;;;7.83;1.50;;;;;;;3.10;100.00;100818.59;7365303;19;20436;-42
2023/12/30 10:18:46;;;;;;;8.77;1.53;;;;;;;3.14;100.00;100811.16;7387882;19;20403;-39
2023/12/30 10:21:18;;;;;;;6.70;1.20;;;;;;;3.15;100.00;100816.38;7368790;19;20439;-43
2023/12/30 10:23:51;;;;;;;14.10;2.17;;;;;;;3.17;100.00;100821.59;7396386;19;20407;-41
2023/12/30 10:26:23;;;;;;;2.83;0.63;;;;;;;3.20;100.00;100819.25;7375873;19;20405;-40
2023/12/30 10:28:54;;;;;;;2.80;0.97;;;;;;;3.22;100.00;100827.88;7395877;19;20404;-40
2023/12/30 10:31:23;;;;;;;5.70;1.20;;;;;;;3.26;100.00;100829.00;7375283;19;20878;-38
2023/12/30 10:33:55;;;;;;;9.70;1.50;;;;;;;3.27;100.00;100825.69;7396431;19;20946;-38
2023/12/30 10:36:25;;;;;;;6.00;1.70;;;;;;;3.27;100.00;100826.56;7376217;19;20403;-38
2023/12/30 10:38:55;;;;;;;3.43;1.10;;;;;;;3.29;100.00;100827.59;7396331;19;20399;-39
2023/12/30 10:41:28;;;;;;;3.43;0.90;;;;;;;3.35;100.00;100835.66;7377364;19;20429;-41
2023/12/30 10:43:58;;;;;;;5.97;1.77;;;;;;;3.35;100.00;100845.84;7397130;19;20404;-40
2023/12/30 10:46:28;;;;;;;2.80;1.10;;;;;;;3.35;100.00;100840.75;7375662;19;20423;-39
2023/12/30 10:49:03;;;;;;;10.27;2.40;;;;;;;3.45;100.00;100844.88;7393107;19;20411;-38
2023/12/30 10:51:36;;;;;;;10.90;2.77;;;;;;;3.42;100.00;100851.41;7374643;19;20846;-43
2023/12/30 10:54:09;;;;;;;12.80;1.10;;;;;;;3.49;100.00;100874.91;7397320;19;20425;-39
2023/12/30 10:56:53;;;;;;;6.03;2.93;;;;;;;3.44;100.00;100885.56;7374475;19;20936;-41
2023/12/30 10:59:24;;;;;;;62.03;12.53;;;;;;;3.51;100.00;100869.94;7396715;19;20802;-41
2023/12/30 11:01:53;;;;;;;20.27;5.17;;;;;;;3.47;100.00;100912.19;7372671;19;20423;-38
2023/12/30 11:04:25;;;;;;;25.03;6.33;;;;;;;3.40;100.00;100927.84;7396554;19;20403;-38
2023/12/30 11:06:57;;;;;;;32.37;10.57;;;;;;;3.47;100.00;100940.25;7372827;19;20879;-39
2023/12/30 11:09:27;;;;;;;11.40;4.10;;;;;;;3.40;100.00;100960.09;7395798;19;20428;-38
2023/12/30 11:12:05;;;;;;;4.90;1.57;;;;;;;3.36;100.00;100975.19;7372511;19;20435;-38
2023/12/30 11:14:37;;;;;;;1.97;0.87;;;;;;;3.33;100.00;100992.81;7392175;19;20415;-38
2023/12/30 11:17:07;;;;;;;3.40;1.83;;;;;;;3.32;100.00;100988.47;7351934;19;22025;-42
2023/12/30 11:19:39;;;;;;;12.43;4.00;;;;;;;3.36;100.00;100987.94;7370667;19;20428;-38
2023/12/30 11:22:08;;;;;;;2.90;1.43;;;;;;;3.26;100.00;100992.22;7348928;19;20442;-40
2023/12/30 11:24:42;;;;;;;5.80;1.50;;;;;;;3.36;100.00;101005.81;7395439;19;20794;-39
2023/12/30 11:27:14;;;;;;;3.33;1.83;;;;;;;3.40;100.00;101008.56;7369249;19;20498;-39
2023/12/30 11:29:43;;;;;;;3.30;1.40;;;;;;;3.43;100.00;101021.56;7396207;19;20400;-40
2023/12/30 11:32:19;;;;;;;2.80;0.87;;;;;;;3.43;100.00;101034.31;7372552;19;20452;-42
2023/12/30 11:34:49;;;;;;;8.17;2.50;;;;;;;3.48;100.00;101045.72;7393074;19;20834;-40
2023/12/30 11:37:19;;;;;;;3.07;1.50;;;;;;;3.50;100.00;101056.97;7371999;19;20456;-41
2023/12/30 11:39:49;;;;;;;4.07;1.80;;;;;;;3.54;100.00;101063.19;7393849;19;20428;-41